Time;durP1;ratioP1;P1;durP2;ratioP2;P2;SDS_P1;SDS_P2;PMS_P1;PMS_P2;Temp;Humidity;BMP_temperature;BMP_pressure;BME280_temperature;BME280_humidity;BME280_pressure;Samples;Min_cycle;Max_cycle;Signal;HPM_P1;HPM_P2
2023/03/12 06:36:43;;;;;;;55.17;31.23;;;3.90;99.90;;;;;;5070721;28;20437;-64
2023/03/12 06:39:09;;;;;;;29.17;20.10;;;5.90;99.90;;;;;;5070646;28;20478;-59
2023/03/12 06:41:35;;;;;;;27.05;20.35;;;9.10;92.00;;;;;;5070580;28;20036;-61
2023/03/12 06:44:04;;;;;;;25.42;19.38;;;11.20;75.30;;;;;;5070627;28;20063;-59
2023/03/12 06:46:30;;;;;;;22.63;16.77;;;13.10;68.60;;;;;;5070808;28;20033;-65
2023/03/12 06:48:56;;;;;;;17.95;13.20;;;14.90;55.90;;;;;;5070480;28;20021;-68
2023/03/12 06:51:22;;;;;;;15.90;12.38;;;17.00;50.30;;;;;;5070358;28;20071;-61
2023/03/12 06:53:47;;;;;;;18.05;13.43;;;18.80;46.40;;;;;;5070406;28;20032;-67
2023/03/12 06:56:14;;;;;;;13.80;12.27;;;20.30;41.50;;;;;;5070156;28;20042;-60
2023/03/12 06:58:40;;;;;;;17.77;13.50;;;21.60;40.10;;;;;;5070305;28;20016;-62
2023/03/12 07:01:06;;;;;;;15.18;13.02;;;22.50;38.30;;;;;;5070579;28;20024;-65
2023/03/12 07:03:32;;;;;;;16.90;13.68;;;23.30;35.80;;;;;;5070404;28;20374;-60
2023/03/12 07:05:58;;;;;;;16.48;14.15;;;23.90;35.30;;;;;;5070119;28;20021;-62
2023/03/12 07:08:24;;;;;;;18.70;15.13;;;24.40;33.60;;;;;;5070290;28;20016;-65
2023/03/12 07:10:50;;;;;;;17.55;15.68;;;24.80;30.60;;;;;;5070178;28;20378;-67
2023/03/12 07:13:16;;;;;;;14.93;13.43;;;24.40;31.20;;;;;;5069981;28;20027;-67
2023/03/12 07:15:43;;;;;;;13.10;11.45;;;24.70;31.90;;;;;;5070146;28;20040;-61
2023/03/12 07:18:10;;;;;;;10.55;9.45;;;25.30;31.00;;;;;;5069792;28;20028;-63
2023/03/12 07:20:41;;;;;;;9.80;8.80;;;25.60;30.60;;;;;;5069800;28;20017;-65
2023/03/12 07:23:07;;;;;;;10.82;9.60;;;25.70;30.30;;;;;;5070075;28;20043;-65
2023/03/12 07:25:38;;;;;;;7.63;6.88;;;26.10;28.90;;;;;;5069906;28;20078;-68
2023/03/12 07:28:05;;;;;;;8.15;7.30;;;26.00;28.50;;;;;;5069877;28;20024;-63
2023/03/12 07:30:32;;;;;;;9.77;8.77;;;26.00;29.00;;;;;;5069893;28;20049;-60
2023/03/12 07:33:03;;;;;;;10.30;9.00;;;25.50;28.90;;;;;;5069500;28;20099;-71
2023/03/12 07:35:29;;;;;;;9.57;8.57;;;25.90;29.40;;;;;;5069103;28;20040;-64
2023/03/12 07:37:56;;;;;;;7.57;6.78;;;26.20;29.10;;;;;;5069418;28;20024;-65
2023/03/12 07:40:22;;;;;;;5.93;5.32;;;26.30;28.50;;;;;;5069599;28;20025;-67
2023/03/12 07:42:48;;;;;;;6.05;5.47;;;26.60;27.80;;;;;;5069465;28;20017;-65
2023/03/12 07:45:14;;;;;;;6.03;5.45;;;26.90;27.40;;;;;;5069329;28;20036;-65
2023/03/12 07:47:40;;;;;;;10.25;8.98;;;26.50;26.90;;;;;;5058108;28;20116;-58
2023/03/12 07:50:06;;;;;;;8.98;7.53;;;25.60;26.60;;;;;;5055806;28;20104;-65
2023/03/12 07:52:31;;;;;;;4.45;3.75;;;25.80;27.30;;;;;;5056252;28;20014;-65
2023/03/12 07:54:57;;;;;;;2.85;2.65;;;25.50;27.40;;;;;;5055830;28;20158;-72
2023/03/12 07:57:24;;;;;;;2.58;2.38;;;25.90;27.30;;;;;;5055834;28;20385;-65
2023/03/12 07:59:49;;;;;;;2.42;2.22;;;26.40;27.50;;;;;;5055959;28;20493;-67
2023/03/12 08:02:16;;;;;;;2.30;2.10;;;26.60;26.90;;;;;;5055859;28;20025;-60
2023/03/12 08:04:41;;;;;;;1.77;1.67;;;26.80;26.80;;;;;;5055546;28;20033;-65
2023/03/12 08:07:07;;;;;;;1.73;1.10;;;27.50;26.60;;;;;;5055822;28;20032;-59
2023/03/12 08:09:33;;;;;;;1.75;0.90;;;28.10;25.80;;;;;;5055724;28;20108;-64
2023/03/12 08:11:59;;;;;;;0.73;0.70;;;27.90;25.30;;;;;;5055568;28;20033;-59
2023/03/12 08:14:30;;;;;;;0.70;0.70;;;27.50;24.80;;;;;;5055872;28;20029;-64
2023/03/12 08:16:56;;;;;;;0.70;0.70;;;27.90;25.30;;;;;;5055403;28;20021;-62
2023/03/12 08:19:22;;;;;;;0.55;0.55;;;27.70;25.60;;;;;;5055462;28;20378;-66
2023/03/12 08:21:47;;;;;;;1.17;0.60;;;28.10;25.60;;;;;;5055591;28;20025;-65
2023/03/12 08:24:14;;;;;;;0.50;0.40;;;28.40;25.50;;;;;;5055491;28;20092;-62
2023/03/12 08:26:40;;;;;;;0.47;0.47;;;28.80;24.60;;;;;;5055244;28;20086;-61
2023/03/12 08:29:05;;;;;;;0.50;0.50;;;27.70;24.30;;;;;;5055421;28;20017;-65
2023/03/12 08:31:31;;;;;;;0.50;0.43;;;26.90;25.40;;;;;;5055151;28;20024;-64
2023/03/12 08:33:57;;;;;;;0.60;0.30;;;25.40;24.50;;;;;;5055147;28;20032;-68
2023/03/12 08:36:23;;;;;;;0.30;0.30;;;24.40;23.50;;;;;;5054842;28;20045;-64
2023/03/12 08:38:48;;;;;;;0.30;0.30;;;23.70;25.20;;;;;;5055243;28;20052;-68
2023/03/12 08:41:14;;;;;;;1.00;0.90;;;24.30;25.60;;;;;;5055223;28;20025;-62
2023/03/12 08:43:40;;;;;;;1.08;0.80;;;24.30;25.30;;;;;;5055069;28;20487;-61
2023/03/12 08:46:06;;;;;;;0.43;0.40;;;24.20;26.10;;;;;;5054692;28;20037;-64
2023/03/12 08:48:32;;;;;;;0.30;0.30;;;24.40;24.90;;;;;;5055019;28;20029;-63
2023/03/12 08:51:02;;;;;;;0.40;0.40;;;23.10;25.40;;;;;;5054825;28;20096;-68
2023/03/12 08:53:30;;;;;;;1.00;0.50;;;23.20;26.60;;;;;;5054911;28;20029;-62
2023/03/12 08:55:57;;;;;;;0.50;0.43;;;22.80;26.90;;;;;;5055055;28;20057;-64
2023/03/12 08:58:24;;;;;;;0.68;0.40;;;22.00;26.90;;;;;;5053773;28;20494;-66
2023/03/12 09:00:51;;;;;;;0.75;0.50;;;21.80;26.50;;;;;;5054685;28;20028;-71
2023/03/12 09:03:17;;;;;;;0.35;0.30;;;21.50;27.20;;;;;;5054452;28;20021;-64
2023/03/12 09:05:43;;;;;;;0.50;0.50;;;20.50;27.90;;;;;;5054760;28;20082;-66
2023/03/12 09:08:10;;;;;;;0.57;0.50;;;19.80;27.60;;;;;;5054855;28;20032;-61
2023/03/12 09:10:36;;;;;;;0.68;0.50;;;18.50;28.00;;;;;;5054440;28;20049;-64
2023/03/12 09:13:03;;;;;;;0.57;0.30;;;17.90;30.10;;;;;;5054404;28;20029;-67
2023/03/12 09:15:28;;;;;;;0.38;0.38;;;18.00;29.50;;;;;;5054538;28;20047;-59
2023/03/12 09:17:54;;;;;;;0.82;0.35;;;17.90;30.30;;;;;;5054430;28;20021;-63
2023/03/12 09:20:21;;;;;;;0.40;0.35;;;17.80;29.50;;;;;;5054576;28;20059;-63
2023/03/12 09:22:47;;;;;;;0.50;0.50;;;17.80;30.50;;;;;;5054363;28;20025;-65
2023/03/12 09:25:13;;;;;;;0.43;0.43;;;17.60;29.50;;;;;;5054454;28;20036;-62
2023/03/12 09:27:46;;;;;;;0.28;0.28;;;16.90;30.20;;;;;;5054179;28;20049;-67
2023/03/12 09:30:15;;;;;;;0.55;0.52;;;16.50;30.00;;;;;;5054230;28;20025;-67
2023/03/12 09:32:43;;;;;;;0.57;0.40;;;16.20;29.20;;;;;;5054452;28;20025;-63
2023/03/12 09:35:09;;;;;;;0.40;0.40;;;15.70;29.20;;;;;;5053914;28;20514;-64
2023/03/12 09:37:35;;;;;;;0.30;0.30;;;15.20;29.30;;;;;;5054065;28;20096;-66
2023/03/12 09:40:00;;;;;;;0.40;0.30;;;15.10;30.10;;;;;;5054291;28;20029;-62
2023/03/12 09:42:45;;;;;;;0.40;0.40;;;15.60;32.20;;;;;;5054002;28;20356;-63
2023/03/12 09:45:25;;;;;;;0.77;0.60;;;16.10;32.70;;;;;;5053596;28;20036;-64
2023/03/12 09:47:58;;;;;;;0.60;0.60;;;16.50;31.60;;;;;;5053859;28;20024;-66
2023/03/12 09:50:39;;;;;;;2.25;1.00;;;16.60;31.00;;;;;;5053890;28;20036;-64
2023/03/12 09:53:29;;;;;;;0.63;0.60;;;16.60;31.00;;;;;;5053701;28;20044;-66
2023/03/12 09:55:57;;;;;;;1.35;0.80;;;16.10;31.00;;;;;;5053624;28;20432;-64
2023/03/12 09:58:30;;;;;;;1.17;1.00;;;16.20;29.60;;;;;;5053697;28;20136;-60
2023/03/12 10:01:11;;;;;;;0.82;0.70;;;15.70;29.40;;;;;;5053638;28;20025;-62
2023/03/12 10:03:55;;;;;;;1.00;0.50;;;15.50;29.80;;;;;;5053458;28;20029;-63
2023/03/12 10:06:26;;;;;;;0.60;0.60;;;15.90;31.70;;;;;;5053473;28;20040;-61
2023/03/12 10:08:57;;;;;;;1.33;0.65;;;16.50;30.00;;;;;;5053683;28;20033;-61
2023/03/12 10:11:26;;;;;;;0.50;0.50;;;16.60;30.30;;;;;;5053295;28;20091;-66
2023/03/12 10:14:07;;;;;;;1.35;1.00;;;16.50;29.20;;;;;;5053482;28;20025;-68
2023/03/12 10:16:40;;;;;;;0.52;0.52;;;16.60;31.80;;;;;;5053494;28;20032;-62
2023/03/12 10:19:09;;;;;;;;;;;16.80;30.90;;;;;;5053800;28;20043;-63
2023/03/12 10:21:57;;;;;;;0.70;0.63;;;17.10;33.60;;;;;;5053284;28;19905;-61
2023/03/12 10:24:40;;;;;;;0.82;0.55;;;17.30;32.30;;;;;;5053087;28;20024;-59
2023/03/12 10:27:13;;;;;;;0.75;0.63;;;17.60;30.70;;;;;;5053326;28;20417;-63
2023/03/12 10:29:42;;;;;;;1.25;0.80;;;17.90;31.40;;;;;;5052936;28;20463;-64
2023/03/12 10:32:20;;;;;;;0.90;0.68;;;18.10;33.10;;;;;;5053273;28;20024;-59
2023/03/12 10:34:53;;;;;;;0.70;0.60;;;17.60;31.60;;;;;;5052781;28;20045;-62
2023/03/12 10:37:46;;;;;;;0.90;0.90;;;17.40;30.80;;;;;;5053277;28;20025;-68
2023/03/12 10:40:18;;;;;;;0.60;0.57;;;17.70;31.20;;;;;;5053298;28;20051;-66
2023/03/12 10:42:44;;;;;;;0.60;0.50;;;17.80;33.50;;;;;;5052922;28;20090;-62
2023/03/12 10:45:09;;;;;;;0.63;0.60;;;18.20;33.00;;;;;;5053062;28;20478;-67
2023/03/12 10:47:37;;;;;;;0.50;0.50;;;18.20;31.20;;;;;;5052992;28;20021;-65
2023/03/12 10:50:16;;;;;;;0.60;0.60;;;18.60;32.30;;;;;;5053194;28;20025;-68
2023/03/12 10:52:43;;;;;;;1.38;1.00;;;18.60;30.30;;;;;;5053284;28;20029;-63
2023/03/12 10:55:23;;;;;;;1.10;1.00;;;18.40;31.80;;;;;;5052897;28;20386;-65
2023/03/12 10:57:49;;;;;;;0.70;0.70;;;18.10;31.60;;;;;;5053069;28;20017;-66
2023/03/12 11:00:24;;;;;;;0.70;0.63;;;18.20;30.80;;;;;;5052834;28;20029;-64
2023/03/12 11:03:02;;;;;;;1.67;0.77;;;17.80;29.90;;;;;;5053102;28;20021;-64
2023/03/12 11:05:33;;;;;;;0.77;0.60;;;17.80;32.80;;;;;;5052790;28;20025;-67
2023/03/12 11:08:00;;;;;;;0.60;0.47;;;17.90;34.70;;;;;;5052863;28;20023;-62
2023/03/12 11:10:40;;;;;;;0.95;0.50;;;18.10;29.10;;;;;;5053144;28;20032;-66
2023/03/12 11:13:23;;;;;;;2.15;0.85;;;18.20;29.70;;;;;;5052820;28;20048;-62
2023/03/12 11:15:51;;;;;;;0.60;0.50;;;17.70;30.40;;;;;;5052674;28;20025;-63
2023/03/12 11:18:27;;;;;;;0.60;0.60;;;17.80;31.70;;;;;;5052953;28;20037;-62
2023/03/12 11:21:14;;;;;;;0.68;0.50;;;17.80;33.20;;;;;;5052810;28;20071;-63
2023/03/12 11:24:06;;;;;;;0.65;0.60;;;18.00;32.00;;;;;;5056687;28;20017;-61
2023/03/12 11:26:55;;;;;;;0.55;0.50;;;18.30;30.00;;;;;;5056007;28;20037;-61
2023/03/12 11:29:26;;;;;;;0.55;0.52;;;18.80;30.80;;;;;;5056421;28;20028;-65
2023/03/12 11:32:19;;;;;;;1.20;0.52;;;19.00;28.70;;;;;;5056287;28;20024;-63
2023/03/12 11:34:48;;;;;;;1.13;0.80;;;18.70;30.70;;;;;;5056073;28;20052;-64
2023/03/12 11:37:46;;;;;;;0.77;0.70;;;18.80;31.40;;;;;;5056201;28;20032;-67
2023/03/12 11:40:32;;;;;;;0.95;0.82;;;18.40;29.00;;;;;;5054966;28;20029;-67
2023/03/12 11:43:13;;;;;;;0.80;0.80;;;18.20;30.60;;;;;;5056257;28;20436;-63
2023/03/12 11:46:20;;;;;;;0.60;0.57;;;18.10;33.60;;;;;;5056282;28;20069;-72
2023/03/12 11:49:24;;;;;;;0.60;0.60;;;17.90;31.10;;;;;;5054027;28;20080;-58
2023/03/12 11:52:31;;;;;;;0.60;0.60;;;18.30;29.00;;;;;;5053932;28;20040;-63
2023/03/12 11:55:12;;;;;;;1.38;0.60;;;18.70;32.20;;;;;;5053494;28;20035;-65
2023/03/12 11:57:56;;;;;;;0.98;0.70;;;18.90;32.70;;;;;;5055710;28;20450;-67
2023/03/12 12:00:45;;;;;;;2.10;0.85;;;19.10;32.30;;;;;;5054675;28;20418;-62
2023/03/12 12:03:26;;;;;;;1.38;0.85;;;19.00;28.80;;;;;;5051413;28;20456;-66
2023/03/12 12:06:04;;;;;;;0.70;0.65;;;18.80;30.00;;;;;;5055580;28;20033;-67
2023/03/12 12:08:42;;;;;;;1.08;1.08;;;18.60;30.60;;;;;;5055687;28;20013;-67
2023/03/12 12:11:27;;;;;;;1.95;1.70;;;18.60;31.40;;;;;;5055556;28;20021;-65
2023/03/12 12:14:10;;;;;;;2.05;1.13;;;18.30;32.70;;;;;;5055574;28;20501;-66
2023/03/12 12:17:02;;;;;;;1.15;0.98;;;18.60;31.30;;;;;;5055537;28;20029;-63
2023/03/12 12:19:46;;;;;;;0.95;0.85;;;18.80;30.80;;;;;;5055388;28;20138;-64
2023/03/12 12:22:41;;;;;;;1.08;0.95;;;19.10;28.70;;;;;;5055539;28;20028;-62
2023/03/12 12:25:19;;;;;;;1.13;0.93;;;19.40;30.00;;;;;;5054408;28;20037;-66
2023/03/12 12:28:15;;;;;;;0.80;0.80;;;19.30;29.50;;;;;;5055300;28;20108;-67
2023/03/12 12:30:59;;;;;;;0.90;0.80;;;19.50;31.00;;;;;;5055247;28;20032;-59
2023/03/12 12:33:30;;;;;;;;;;;19.50;30.00;;;;;;5055552;28;20102;-65
2023/03/12 12:35:56;;;;;;;0.60;0.60;;;19.30;31.50;;;;;;5054927;28;19917;-66
2023/03/12 12:38:31;;;;;;;0.60;0.50;;;19.40;30.20;;;;;;5054881;28;20127;-62
2023/03/12 12:41:20;;;;;;;0.70;0.52;;;19.60;31.20;;;;;;5055411;28;20420;-62
2023/03/12 12:43:56;;;;;;;0.77;0.60;;;19.70;29.30;;;;;;5055487;28;20017;-70
2023/03/12 12:46:41;;;;;;;1.00;0.90;;;18.50;28.50;;;;;;5054935;28;20033;-63
2023/03/12 12:49:42;;;;;;;0.93;0.90;;;17.90;30.90;;;;;;5055014;28;20022;-61
2023/03/12 12:52:12;;;;;;;0.93;0.60;;;18.30;31.60;;;;;;5054519;28;20033;-62
2023/03/12 12:54:59;;;;;;;1.00;0.70;;;18.60;31.40;;;;;;5054705;28;20505;-67
2023/03/12 12:57:59;;;;;;;0.70;0.60;;;19.00;31.60;;;;;;5054763;28;20352;-68
2023/03/12 13:00:50;;;;;;;0.90;0.75;;;19.40;29.90;;;;;;5054657;28;20021;-66
2023/03/12 13:03:22;;;;;;;1.48;1.00;;;19.40;30.30;;;;;;5054691;28;20025;-68
2023/03/12 13:06:05;;;;;;;0.60;0.60;;;19.30;29.40;;;;;;5054625;28;20036;-61
2023/03/12 13:08:57;;;;;;;0.85;0.60;;;19.20;28.70;;;;;;5054335;28;20025;-62
2023/03/12 13:11:38;;;;;;;0.68;0.63;;;19.10;29.10;;;;;;5054025;28;20383;-68
2023/03/12 13:14:03;;;;;;;0.70;0.70;;;19.10;30.70;;;;;;5054414;28;20455;-61
2023/03/12 13:16:41;;;;;;;0.60;0.60;;;19.20;31.10;;;;;;5054532;28;20078;-63
2023/03/12 13:19:13;;;;;;;0.63;0.52;;;19.40;28.70;;;;;;5054332;28;20028;-63
2023/03/12 13:22:03;;;;;;;0.70;0.40;;;19.40;30.70;;;;;;5054360;28;20025;-62
2023/03/12 13:24:45;;;;;;;1.00;0.73;;;19.60;28.70;;;;;;5054097;28;20032;-64
2023/03/12 13:27:21;;;;;;;0.50;0.50;;;19.70;28.20;;;;;;5054208;28;20021;-70
2023/03/12 13:29:53;;;;;;;0.70;0.70;;;19.90;30.00;;;;;;5054056;28;20025;-63
2023/03/12 13:32:36;;;;;;;1.52;0.60;;;20.00;29.10;;;;;;5054115;28;20467;-64
2023/03/12 13:35:17;;;;;;;0.70;0.60;;;19.80;29.10;;;;;;5052503;28;20487;-65
2023/03/12 13:37:46;;;;;;;0.70;0.50;;;19.70;29.40;;;;;;5053853;28;20056;-60
2023/03/12 13:40:37;;;;;;;0.50;0.50;;;19.90;30.10;;;;;;5053902;28;20425;-60
2023/03/12 13:43:31;;;;;;;0.80;0.50;;;20.00;29.90;;;;;;5053862;28;20029;-67
2023/03/12 13:46:09;;;;;;;0.50;0.50;;;20.00;27.70;;;;;;5053311;28;20029;-65
2023/03/12 13:48:44;;;;;;;0.70;0.50;;;19.90;29.80;;;;;;5053789;28;20031;-67
2023/03/12 13:51:15;;;;;;;0.50;0.47;;;20.00;29.30;;;;;;5053708;28;20021;-60
2023/03/12 13:53:45;;;;;;;0.95;0.50;;;20.00;27.40;;;;;;5053816;28;20021;-69
2023/03/12 13:56:15;;;;;;;1.30;0.65;;;19.40;26.70;;;;;;5053692;28;20359;-65
2023/03/12 13:58:58;;;;;;;0.73;0.65;;;18.80;27.90;;;;;;5053706;28;20032;-66
2023/03/12 14:01:28;;;;;;;0.60;0.60;;;18.30;27.30;;;;;;5053863;28;20100;-65
2023/03/12 14:04:10;;;;;;;0.70;0.70;;;18.40;28.10;;;;;;5053647;28;20032;-66
2023/03/12 14:07:08;;;;;;;0.55;0.52;;;18.70;28.20;;;;;;5053466;28;20082;-64
2023/03/12 14:10:04;;;;;;;0.60;0.57;;;19.30;29.00;;;;;;5053758;28;20132;-58
2023/03/12 14:12:51;;;;;;;0.65;0.65;;;19.60;28.50;;;;;;5053499;28;20475;-64
2023/03/12 14:15:30;;;;;;;0.63;0.55;;;19.70;29.50;;;;;;5053405;28;20028;-68
2023/03/12 14:18:00;;;;;;;0.98;0.70;;;19.20;29.20;;;;;;5053339;28;20032;-61
2023/03/12 14:20:27;;;;;;;0.75;0.40;;;19.10;28.30;;;;;;5053119;28;20021;-63
2023/03/12 14:23:14;;;;;;;0.50;0.50;;;19.10;28.70;;;;;;5053533;28;20079;-64
2023/03/12 14:25:45;;;;;;;0.60;0.50;;;18.80;28.50;;;;;;5053001;28;20029;-64
2023/03/12 14:28:18;;;;;;;0.52;0.50;;;19.00;29.50;;;;;;5053269;28;20025;-66
2023/03/12 14:31:00;;;;;;;1.00;0.68;;;19.40;27.70;;;;;;5053230;28;20017;-67
2023/03/12 14:33:32;;;;;;;0.75;0.50;;;19.50;27.80;;;;;;5053230;28;20032;-67
2023/03/12 14:36:14;;;;;;;1.13;0.82;;;19.40;27.80;;;;;;5052641;28;20041;-59
2023/03/12 14:38:43;;;;;;;0.50;0.50;;;19.50;29.30;;;;;;5053519;28;20091;-67
2023/03/12 14:41:18;;;;;;;1.17;0.95;;;19.60;28.80;;;;;;5053267;28;20033;-67
2023/03/12 14:43:45;;;;;;;0.90;0.70;;;19.70;28.90;;;;;;5053425;28;20023;-61
2023/03/12 14:46:16;;;;;;;1.08;0.60;;;19.30;29.40;;;;;;5053065;28;20033;-64
2023/03/12 14:48:45;;;;;;;0.77;0.77;;;19.40;30.10;;;;;;5052880;28;20029;-63
2023/03/12 14:51:29;;;;;;;4.60;4.20;;;19.30;27.10;;;;;;5053171;28;20029;-71
2023/03/12 14:53:55;;;;;;;;;;;19.10;28.40;;;;;;5053404;28;20025;-65
2023/03/12 14:56:26;;;;;;;1.63;1.52;;;18.80;28.00;;;;;;5053284;28;19905;-66
2023/03/12 14:58:52;;;;;;;1.35;0.90;;;19.00;28.40;;;;;;5057053;28;20491;-62
2023/03/12 15:01:27;;;;;;;1.25;1.02;;;19.00;27.70;;;;;;5056930;28;20024;-67
2023/03/12 15:04:07;;;;;;;0.95;0.90;;;19.10;28.30;;;;;;5056681;28;20057;-62
2023/03/12 15:06:48;;;;;;;0.68;0.68;;;19.30;28.30;;;;;;5056716;28;20471;-64
2023/03/12 15:09:26;;;;;;;0.77;0.60;;;19.40;27.70;;;;;;5056791;28;20029;-65
2023/03/12 15:12:04;;;;;;;1.20;1.10;;;19.30;27.50;;;;;;5056724;28;20056;-66
2023/03/12 15:14:36;;;;;;;0.77;0.70;;;19.40;28.10;;;;;;5057181;28;20021;-59
2023/03/12 15:17:03;;;;;;;0.70;0.70;;;19.40;29.10;;;;;;5056688;28;20407;-68
2023/03/12 15:19:34;;;;;;;0.63;0.63;;;19.20;27.60;;;;;;5056510;28;20544;-67
2023/03/12 15:22:00;;;;;;;0.73;0.70;;;19.30;28.30;;;;;;5056741;28;20021;-63
2023/03/12 15:24:37;;;;;;;0.95;0.80;;;19.40;27.10;;;;;;5056520;28;20017;-66
2023/03/12 15:27:22;;;;;;;0.70;0.70;;;19.40;27.40;;;;;;5056538;28;20463;-62
2023/03/12 15:29:48;;;;;;;0.73;0.73;;;19.40;27.80;;;;;;5056396;28;20057;-68
2023/03/12 15:32:16;;;;;;;1.13;1.02;;;19.30;27.80;;;;;;5056364;28;20027;-65
2023/03/12 15:34:42;;;;;;;1.45;1.10;;;19.00;27.50;;;;;;5056334;28;20049;-66
2023/03/12 15:37:36;;;;;;;0.82;0.70;;;18.60;28.00;;;;;;5056243;28;20017;-62
2023/03/12 15:40:07;;;;;;;0.75;0.70;;;18.60;28.70;;;;;;5056543;28;20119;-65
2023/03/12 15:42:40;;;;;;;0.60;0.60;;;18.50;29.50;;;;;;5056279;28;20025;-62
2023/03/12 15:45:24;;;;;;;0.60;0.60;;;18.60;27.40;;;;;;5056133;28;20021;-64
2023/03/12 15:47:53;;;;;;;0.80;0.80;;;18.70;27.10;;;;;;5056105;28;20032;-62
2023/03/12 15:50:21;;;;;;;0.90;0.65;;;19.10;27.80;;;;;;5056187;28;20092;-66
2023/03/12 15:53:24;;;;;;;0.70;0.70;;;19.10;27.80;;;;;;5056153;28;20079;-64
2023/03/12 15:56:20;;;;;;;1.08;0.98;;;19.20;28.20;;;;;;5056282;28;20040;-67
2023/03/12 15:58:57;;;;;;;1.00;0.90;;;19.00;27.30;;;;;;5056259;28;20025;-67
2023/03/12 16:01:26;;;;;;;1.15;1.05;;;18.70;27.70;;;;;;5055656;28;20378;-59
2023/03/12 16:03:53;;;;;;;1.25;1.15;;;18.70;28.00;;;;;;5056258;28;20052;-60
2023/03/12 16:06:24;;;;;;;1.73;1.40;;;18.60;28.50;;;;;;5055699;28;20025;-67
2023/03/12 16:08:54;;;;;;;1.13;1.02;;;18.50;28.80;;;;;;5055545;28;20017;-69
2023/03/12 16:11:26;;;;;;;1.10;1.00;;;18.20;28.40;;;;;;5055713;28;20025;-64
2023/03/12 16:14:01;;;;;;;0.77;0.70;;;17.90;28.50;;;;;;5055854;28;20032;-64
2023/03/12 16:16:27;;;;;;;1.25;1.00;;;17.60;29.40;;;;;;5055677;28;20089;-67
2023/03/12 16:18:53;;;;;;;1.20;1.10;;;17.50;29.20;;;;;;5055608;28;20028;-67
2023/03/12 16:21:18;;;;;;;1.40;1.30;;;17.50;29.30;;;;;;5055498;28;20025;-63
2023/03/12 16:23:44;;;;;;;1.63;1.52;;;17.20;30.40;;;;;;5055610;28;20108;-62
2023/03/12 16:26:12;;;;;;;1.60;1.50;;;17.00;30.00;;;;;;5055412;28;20029;-63
2023/03/12 16:28:38;;;;;;;2.10;1.92;;;16.80;30.20;;;;;;5055359;28;20542;-67
2023/03/12 16:31:13;;;;;;;1.75;1.65;;;16.50;31.30;;;;;;5055273;28;20095;-65
2023/03/12 16:33:39;;;;;;;1.45;1.30;;;16.30;31.20;;;;;;5055340;28;20013;-61
2023/03/12 16:36:17;;;;;;;1.60;1.50;;;16.10;31.20;;;;;;5054837;28;20037;-66
2023/03/12 16:38:44;;;;;;;7.43;5.13;;;15.90;31.60;;;;;;5055487;28;20032;-64
2023/03/12 16:41:13;;;;;;;41.28;34.67;;;15.60;31.90;;;;;;5055366;28;20017;-63
2023/03/12 16:43:40;;;;;;;87.38;68.93;;;15.30;33.50;;;;;;5055093;28;20041;-59
2023/03/12 16:46:09;;;;;;;128.98;100.30;;;15.00;35.20;;;;;;5054879;28;20031;-65
2023/03/12 16:48:35;;;;;;;90.55;69.28;;;14.50;36.30;;;;;;5054884;28;20021;-61
2023/03/12 16:51:01;;;;;;;120.75;91.20;;;13.70;37.70;;;;;;5055173;28;20023;-68
2023/03/12 16:53:27;;;;;;;164.73;118.40;;;12.90;40.30;;;;;;5055071;28;20049;-64
2023/03/12 16:55:59;;;;;;;181.73;120.80;;;12.50;41.40;;;;;;5054848;28;20039;-63
2023/03/12 16:58:26;;;;;;;195.43;134.60;;;12.20;42.10;;;;;;5055060;28;20029;-63
2023/03/12 17:00:54;;;;;;;201.43;132.18;;;12.00;43.40;;;;;;5054878;28;20028;-64
2023/03/12 17:03:33;;;;;;;191.25;123.78;;;11.80;44.10;;;;;;5054900;28;20435;-63
2023/03/12 17:05:59;;;;;;;164.82;112.13;;;11.50;44.60;;;;;;5054577;28;20025;-67
2023/03/12 17:08:25;;;;;;;209.73;147.55;;;11.10;44.60;;;;;;5054723;28;20074;-63
2023/03/12 17:10:51;;;;;;;218.55;155.00;;;10.80;45.50;;;;;;5054794;28;20032;-65
2023/03/12 17:13:24;;;;;;;208.20;134.98;;;10.50;46.80;;;;;;5054520;28;20025;-63
2023/03/12 17:15:50;;;;;;;209.38;133.52;;;10.30;46.80;;;;;;5054537;28;20032;-61
2023/03/12 17:18:17;;;;;;;171.63;116.13;;;10.20;47.70;;;;;;5054613;28;20021;-64
2023/03/12 17:20:43;;;;;;;150.88;101.93;;;10.30;47.30;;;;;;5053572;28;20079;-65
2023/03/12 17:23:09;;;;;;;142.93;93.65;;;10.20;47.60;;;;;;5054384;28;20021;-67
2023/03/12 17:25:38;;;;;;;108.72;74.70;;;10.20;48.30;;;;;;5054389;28;20037;-65
2023/03/12 17:28:04;;;;;;;111.70;78.18;;;9.70;48.60;;;;;;5054347;28;20017;-68
2023/03/12 17:30:31;;;;;;;96.53;67.60;;;9.40;49.60;;;;;;5054095;28;20025;-70
2023/03/12 17:33:01;;;;;;;102.05;70.45;;;9.20;50.30;;;;;;5054013;28;20025;-68
2023/03/12 17:35:27;;;;;;;73.82;51.63;;;9.20;50.30;;;;;;5053935;28;20406;-63
2023/03/12 17:37:53;;;;;;;104.63;69.75;;;9.40;48.70;;;;;;5054009;28;20116;-62
2023/03/12 17:40:18;;;;;;;127.22;81.03;;;9.50;49.80;;;;;;5053932;28;20097;-64
2023/03/12 17:42:44;;;;;;;158.05;107.22;;;9.50;48.80;;;;;;5054006;28;20039;-65
2023/03/12 17:45:10;;;;;;;134.50;92.85;;;9.40;50.20;;;;;;5053902;28;20029;-68
2023/03/12 17:47:36;;;;;;;127.93;91.03;;;9.40;50.50;;;;;;5053772;28;20025;-62
2023/03/12 17:50:04;;;;;;;121.85;87.88;;;9.40;50.10;;;;;;5054139;28;20032;-61
2023/03/12 17:52:31;;;;;;;93.68;74.55;;;9.40;50.70;;;;;;5053685;28;20021;-67
2023/03/12 17:54:56;;;;;;;77.90;59.72;;;9.40;49.40;;;;;;5053642;28;20078;-61
2023/03/12 17:57:23;;;;;;;52.22;42.78;;;9.60;49.00;;;;;;5053584;28;20110;-63
2023/03/12 17:59:49;;;;;;;47.25;39.35;;;9.60;48.00;;;;;;5053685;28;20021;-66
2023/03/12 18:02:16;;;;;;;43.58;33.88;;;9.70;48.20;;;;;;5053466;28;20150;-63
2023/03/12 18:04:41;;;;;;;39.55;30.95;;;9.60;48.50;;;;;;5053548;28;20395;-68
2023/03/12 18:07:08;;;;;;;46.95;36.50;;;9.60;47.30;;;;;;5053552;28;20031;-58
2023/03/12 18:09:34;;;;;;;42.83;33.80;;;9.60;48.80;;;;;;5053490;28;20059;-66
2023/03/12 18:12:00;;;;;;;54.30;39.05;;;9.60;49.10;;;;;;5053521;28;20032;-63
2023/03/12 18:14:26;;;;;;;43.78;33.25;;;9.80;48.10;;;;;;5053626;28;20021;-63
2023/03/12 18:16:51;;;;;;;51.05;37.75;;;10.00;47.20;;;;;;5053390;28;20433;-60
2023/03/12 18:19:17;;;;;;;44.45;35.13;;;10.10;47.90;;;;;;5053229;28;20032;-66
2023/03/12 18:21:43;;;;;;;48.08;35.92;;;9.90;49.10;;;;;;5053277;28;20033;-62
2023/03/12 18:24:08;;;;;;;45.95;35.97;;;9.80;49.30;;;;;;5053871;28;20021;-63
2023/03/12 18:26:34;;;;;;;133.27;83.38;;;9.60;50.20;;;;;;5053138;28;20029;-66
2023/03/12 18:29:00;;;;;;;67.43;46.72;;;9.40;51.00;;;;;;5053111;28;20056;-64
2023/03/12 18:31:26;;;;;;;61.47;43.17;;;9.10;51.00;;;;;;5053218;28;20471;-60
2023/03/12 18:33:52;;;;;;;49.58;37.80;;;9.10;51.40;;;;;;5053220;28;20013;-64
2023/03/12 18:36:18;;;;;;;47.30;35.85;;;9.00;51.00;;;;;;5052757;28;20060;-65
2023/03/12 18:38:45;;;;;;;45.58;33.05;;;9.10;51.40;;;;;;5053478;28;20100;-62
2023/03/12 18:41:11;;;;;;;44.60;30.58;;;9.20;49.70;;;;;;5053089;28;20078;-63
2023/03/12 18:43:38;;;;;;;42.92;31.92;;;9.40;47.90;;;;;;5052993;28;20025;-66
2023/03/12 18:46:05;;;;;;;44.78;33.70;;;9.40;47.90;;;;;;5053008;28;20036;-70
2023/03/12 18:48:31;;;;;;;55.17;39.00;;;9.30;48.50;;;;;;5053337;28;20032;-61
2023/03/12 18:50:57;;;;;;;46.67;34.28;;;9.20;48.40;;;;;;5053628;28;20021;-65
2023/03/12 18:53:22;;;;;;;46.50;36.35;;;9.20;48.50;;;;;;5053272;28;20032;-62
2023/03/12 18:55:52;;;;;;;45.35;33.50;;;9.10;49.10;;;;;;5053088;28;20029;-65
2023/03/12 18:58:18;;;;;;;40.38;30.27;;;9.00;49.30;;;;;;5053261;28;20029;-67
2023/03/12 19:00:43;;;;;;;38.33;29.30;;;9.10;50.00;;;;;;5052941;28;20032;-65
2023/03/12 19:03:09;;;;;;;36.45;27.00;;;9.20;49.70;;;;;;5053167;28;20021;-67
2023/03/12 19:05:35;;;;;;;36.92;27.70;;;9.40;49.50;;;;;;5052713;28;20025;-60
2023/03/12 19:08:00;;;;;;;38.75;29.27;;;9.40;49.20;;;;;;5052895;28;20055;-65
2023/03/12 19:10:26;;;;;;;42.97;30.33;;;9.50;49.10;;;;;;5053074;28;20100;-65
2023/03/12 19:12:52;;;;;;;37.88;26.45;;;9.50;49.40;;;;;;5052770;28;20017;-59
2023/03/12 19:15:18;;;;;;;61.63;40.72;;;9.40;49.30;;;;;;5052811;28;20047;-65
2023/03/12 19:17:43;;;;;;;70.95;44.85;;;9.20;50.10;;;;;;5053140;28;20017;-64
2023/03/12 19:20:11;;;;;;;56.17;40.85;;;9.10;50.20;;;;;;5052753;28;20379;-66
2023/03/12 19:22:37;;;;;;;53.72;39.70;;;8.90;50.50;;;;;;5052829;28;20540;-63
2023/03/12 19:25:02;;;;;;;82.55;65.32;;;8.80;51.90;;;;;;5052436;28;20037;-64
2023/03/12 19:27:28;;;;;;;70.20;56.65;;;8.50;53.00;;;;;;5052875;28;20471;-68
2023/03/12 19:29:54;;;;;;;78.22;60.60;;;8.10;55.10;;;;;;5052927;28;20516;-60
2023/03/12 19:32:19;;;;;;;84.20;66.45;;;7.80;56.40;;;;;;5052808;28;20032;-64
2023/03/12 19:34:47;;;;;;;65.03;51.90;;;7.60;56.80;;;;;;5052452;28;20080;-67
2023/03/12 19:37:17;;;;;;;51.65;43.33;;;7.60;56.50;;;;;;5052571;28;20028;-65
2023/03/12 19:39:43;;;;;;;50.20;38.90;;;7.80;55.80;;;;;;5052731;28;20029;-65
2023/03/12 19:42:08;;;;;;;64.70;46.90;;;8.00;54.90;;;;;;5052608;28;20022;-68
2023/03/12 19:44:37;;;;;;;48.13;38.35;;;8.10;55.60;;;;;;5056213;28;20091;-62